Time;durP1;ratioP1;P1;durP2;ratioP2;P2;SDS_P1;SDS_P2;PMS_P1;PMS_P2;Temp;Humidity;BMP_temperature;BMP_pressure;BME280_temperature;BME280_humidity;BME280_pressure;Samples;Min_cycle;Max_cycle;Signal;HPM_P1;HPM_P2
2024/04/13 00:00:47;;;;;;;5.50;3.78;;;;;;;13.29;84.61;99928.13;5345360;26;20322;-83
2024/04/13 00:03:12;;;;;;;5.80;3.42;;;;;;;13.26;84.60;99929.41;5370421;26;20035;-83
2024/04/13 00:05:37;;;;;;;6.80;3.50;;;;;;;13.16;83.96;99912.31;5372622;26;19996;-83
2024/04/13 00:08:03;;;;;;;5.45;3.30;;;;;;;13.06;84.94;99902.22;5342984;26;20461;-82
2024/04/13 00:10:30;;;;;;;5.38;3.50;;;;;;;13.16;85.20;99920.38;5340421;26;20047;-83
2024/04/13 00:12:56;;;;;;;6.15;3.40;;;;;;;12.67;84.74;99822.63;5371193;26;20363;-84
2024/04/13 00:15:21;;;;;;;4.75;3.20;;;;;;;12.89;84.83;99887.13;5372349;26;20040;-83
2024/04/13 00:17:46;;;;;;;4.28;3.67;;;;;;;13.02;85.36;99913.63;5346355;26;19996;-83
2024/04/13 00:20:12;;;;;;;5.00;3.97;;;;;;;13.12;85.30;99901.28;5339203;26;20015;-82
2024/04/13 00:22:37;;;;;;;6.55;4.22;;;;;;;13.08;84.75;99886.72;5370635;26;20023;-84
2024/04/13 00:25:03;;;;;;;10.65;4.82;;;;;;;13.04;85.45;99904.28;5371601;26;20074;-82
2024/04/13 00:27:29;;;;;;;5.63;4.00;;;;;;;13.19;85.03;99912.66;5373813;26;20027;-83
2024/04/13 00:29:54;;;;;;;5.13;4.00;;;;;;;13.15;85.78;99914.19;5363919;26;20097;-83
2024/04/13 00:32:19;;;;;;;5.70;3.85;;;;;;;13.12;85.22;99913.84;5376623;26;19997;-83
2024/04/13 00:34:47;;;;;;;6.45;4.25;;;;;;;13.13;85.80;99908.25;5372921;26;20475;-83
2024/04/13 00:37:12;;;;;;;5.25;3.38;;;;;;;13.13;85.60;99902.88;5373875;26;20011;-83
2024/04/13 00:39:38;;;;;;;5.20;3.67;;;;;;;13.10;85.74;99905.25;5344060;26;19996;-84
2024/04/13 00:42:06;;;;;;;7.82;4.15;;;;;;;13.02;85.69;99890.31;5372059;26;19993;-83
2024/04/13 00:44:32;;;;;;;6.78;3.88;;;;;;;13.05;85.44;99889.88;5320950;26;20148;-83
2024/04/13 00:47:05;;;;;;;8.85;4.47;;;;;;;13.15;85.73;99914.19;5363171;26;20471;-83
2024/04/13 00:49:36;;;;;;;5.78;4.13;;;;;;;13.12;86.12;99911.19;5373432;26;20008;-83
2024/04/13 00:52:05;;;;;;;7.90;4.55;;;;;;;13.08;85.54;99891.28;5369934;26;20455;-83
2024/04/13 00:54:34;;;;;;;6.95;4.35;;;;;;;13.15;86.58;99903.47;5342023;26;20000;-83
2024/04/13 00:56:59;;;;;;;5.18;4.68;;;;;;;13.02;85.72;99890.31;5374434;26;20040;-84
2024/04/13 00:59:26;;;;;;;6.80;4.45;;;;;;;12.92;85.91;99875.91;5370339;26;20070;-83
2024/04/13 01:01:52;;;;;;;9.93;4.30;;;;;;;13.03;86.25;99883.91;5363405;26;20011;-83
2024/04/13 01:04:18;;;;;;;6.57;4.75;;;;;;;12.94;86.08;99873.78;5367514;26;19997;-84
2024/04/13 01:06:44;;;;;;;7.22;5.13;;;;;;;12.95;86.01;99878.94;5377708;26;20008;-83
2024/04/13 01:09:14;;;;;;;8.13;4.47;;;;;;;12.90;86.38;99896.75;5375368;26;20067;-83
2024/04/13 01:11:41;;;;;;;7.35;4.78;;;;;;;12.97;86.53;99894.78;5363103;26;19993;-83
2024/04/13 01:14:07;;;;;;;6.15;5.07;;;;;;;12.98;85.92;99889.16;5366592;26;20009;-84
2024/04/13 01:16:35;;;;;;;6.97;5.10;;;;;;;12.91;86.77;99893.84;5372950;26;20016;-83
2024/04/13 01:19:00;;;;;;;10.15;5.43;;;;;;;13.01;86.41;99899.41;5380178;26;20012;-83
2024/04/13 01:21:26;;;;;;;8.35;4.57;;;;;;;13.07;86.29;99911.06;5379392;26;20019;-83
2024/04/13 01:24:04;;;;;;;8.38;5.47;;;;;;;12.95;86.80;99891.53;5374255;26;20453;-83
2024/04/13 01:26:37;;;;;;;8.50;5.15;;;;;;;13.08;86.21;99900.13;5371904;26;20017;-83
2024/04/13 01:29:03;;;;;;;9.30;4.70;;;;;;;13.05;86.14;99892.56;5374632;26;20463;-83
2024/04/13 01:31:29;;;;;;;10.18;4.95;;;;;;;12.99;86.74;99903.38;5375468;26;20041;-83
2024/04/13 01:33:55;;;;;;;11.88;4.97;;;;;;;12.73;86.20;99843.13;5371892;26;20008;-83
2024/04/13 01:36:22;;;;;;;8.85;4.75;;;;;;;13.06;86.06;99899.53;5374406;26;20069;-84
2024/04/13 01:38:48;;;;;;;5.57;4.68;;;;;;;12.80;86.20;99862.53;5371313;26;20008;-83
2024/04/13 01:41:13;;;;;;;6.28;4.97;;;;;;;13.02;85.74;99908.28;5366812;26;20455;-84
2024/04/13 01:43:39;;;;;;;6.93;5.57;;;;;;;12.53;86.66;99856.91;5349566;26;20000;-83
2024/04/13 01:46:05;;;;;;;6.45;4.80;;;;;;;12.93;86.90;99902.44;5377644;26;20027;-83
2024/04/13 01:48:30;;;;;;;9.90;6.13;;;;;;;12.62;87.80;99868.06;5381028;26;20463;-83
2024/04/13 01:50:56;;;;;;;11.70;6.43;;;;;;;12.91;86.92;99896.50;5370893;26;20040;-82
2024/04/13 01:53:21;;;;;;;10.23;5.90;;;;;;;12.90;86.97;99896.75;5373574;26;20008;-82
2024/04/13 01:55:47;;;;;;;12.88;5.78;;;;;;;12.95;86.23;99878.94;5379261;26;19993;-83
2024/04/13 01:58:13;;;;;;;9.88;5.50;;;;;;;12.89;85.92;99895.94;5374500;26;20051;-83
2024/04/13 02:00:38;;;;;;;9.55;5.38;;;;;;;12.70;86.97;99873.88;5345146;26;20019;-83
2024/04/13 02:03:04;;;;;;;10.00;5.68;;;;;;;12.74;86.37;99879.56;5377272;26;20440;-83
2024/04/13 02:05:34;;;;;;;12.50;5.82;;;;;;;12.86;86.50;99887.56;5376466;26;20008;-82
2024/04/13 02:07:59;;;;;;;9.57;5.03;;;;;;;12.82;86.13;99893.41;5376255;26;20081;-82
2024/04/13 02:10:24;;;;;;;8.52;5.32;;;;;;;12.88;86.07;99896.19;5381012;26;20004;-83
2024/04/13 02:12:50;;;;;;;11.45;7.30;;;;;;;12.68;86.58;99869.81;5374273;26;19996;-83
2024/04/13 02:15:16;;;;;;;12.00;6.53;;;;;;;12.82;86.66;99883.75;5375639;26;20448;-83
2024/04/13 02:17:42;;;;;;;12.13;6.15;;;;;;;12.75;86.81;99883.88;5376812;26;20073;-83
2024/04/13 02:20:07;;;;;;;12.40;5.70;;;;;;;12.78;85.71;99848.56;5372339;26;20471;-84
2024/04/13 02:22:35;;;;;;;10.52;6.97;;;;;;;12.77;86.50;99868.38;5344501;26;20020;-84
2024/04/13 02:25:02;;;;;;;8.90;5.97;;;;;;;12.75;85.96;99868.59;5378781;26;19992;-83
2024/04/13 02:27:28;;;;;;;9.75;5.72;;;;;;;12.74;86.50;99879.56;5346704;26;20664;-83
2024/04/13 02:29:56;;;;;;;10.45;5.85;;;;;;;12.31;87.93;99842.53;5379151;26;19997;-84
2024/04/13 02:32:22;;;;;;;10.07;5.72;;;;;;;12.44;88.22;99850.31;5373264;26;20008;-83
2024/04/13 02:34:47;;;;;;;12.55;6.38;;;;;;;12.49;87.36;99853.06;5386318;26;20004;-83
2024/04/13 02:37:13;;;;;;;6.53;5.35;;;;;;;12.73;86.92;99880.63;5319607;26;20019;-83
2024/04/13 02:39:39;;;;;;;9.55;5.45;;;;;;;12.78;86.36;99880.72;5343172;26;20348;-83
2024/04/13 02:42:05;;;;;;;8.75;5.63;;;;;;;12.49;87.33;99881.72;5374901;26;20005;-83
2024/04/13 02:44:30;;;;;;;15.70;6.28;;;;;;;12.64;86.68;99876.69;5375467;26;20024;-83
2024/04/13 02:46:56;;;;;;;6.10;5.47;;;;;;;12.60;87.13;99875.53;5370783;26;20398;-82
2024/04/13 02:49:21;;;;;;;11.77;5.68;;;;;;;12.72;87.00;99877.13;5367419;26;20506;-82
2024/04/13 02:51:46;;;;;;;13.05;6.80;;;;;;;12.58;86.91;99864.25;5379757;26;20077;-83
2024/04/13 02:54:12;;;;;;;9.07;6.00;;;;;;;12.45;87.04;99872.53;5344315;26;20004;-83
2024/04/13 02:56:37;;;;;;;12.75;6.95;;;;;;;12.28;87.90;99844.84;5373808;26;20665;-83
2024/04/13 02:59:03;;;;;;;11.85;5.80;;;;;;;12.37;87.55;99843.44;5344947;26;20004;-84
2024/04/13 03:01:28;;;;;;;9.70;5.78;;;;;;;12.66;86.07;99863.88;5376783;26;19996;-84
2024/04/13 03:03:53;;;;;;;11.60;6.40;;;;;;;12.49;87.36;99860.31;5377459;26;20000;-82
2024/04/13 03:06:19;;;;;;;11.30;6.25;;;;;;;12.54;86.70;99855.84;5367661;26;20008;-84
2024/04/13 03:08:44;;;;;;;8.65;5.97;;;;;;;12.22;87.44;99811.81;5367275;26;20334;-83
2024/04/13 03:11:11;;;;;;;9.75;6.25;;;;;;;12.45;86.68;99819.78;5371851;26;20001;-83
2024/04/13 03:13:37;;;;;;;10.07;6.43;;;;;;;12.43;88.06;99853.19;5345029;26;20004;-84
2024/04/13 03:16:12;;;;;;;8.85;5.97;;;;;;;12.38;88.08;99827.16;5370672;26;20012;-83
2024/04/13 03:18:39;;;;;;;13.35;6.05;;;;;;;12.65;87.51;99835.44;5370671;26;20007;-83
2024/04/13 03:21:05;;;;;;;11.75;5.63;;;;;;;12.66;86.63;99840.59;5373677;26;20000;-83
2024/04/13 03:23:32;;;;;;;7.90;5.80;;;;;;;12.66;86.85;99840.59;5366716;26;20459;-84
2024/04/13 03:25:58;;;;;;;9.38;6.10;;;;;;;12.67;86.48;99830.66;5378107;26;20014;-83
2024/04/13 03:28:29;;;;;;;14.88;6.40;;;;;;;12.34;88.01;99811.78;5376779;26;19997;-83
2024/04/13 03:30:55;;;;;;;9.35;6.47;;;;;;;12.49;86.92;99804.84;5363789;26;19993;-83
2024/04/13 03:33:21;;;;;;;12.60;6.28;;;;;;;12.55;87.30;99820.00;5377780;26;19997;-83
2024/04/13 03:35:47;;;;;;;7.90;5.57;;;;;;;12.41;87.01;99802.56;5370742;26;20336;-83
2024/04/13 03:38:13;;;;;;;8.93;6.38;;;;;;;12.54;86.75;99818.38;5372652;26;20020;-84
2024/04/13 03:40:39;;;;;;;13.52;6.88;;;;;;;12.32;87.32;99813.91;5375479;26;20444;-83
2024/04/13 03:43:04;;;;;;;14.45;7.32;;;;;;;12.50;87.48;99835.13;5376067;26;20011;-83
2024/04/13 03:45:30;;;;;;;15.32;8.00;;;;;;;12.56;86.53;99823.47;5371823;26;20078;-83
2024/04/13 03:47:56;;;;;;;11.55;7.82;;;;;;;12.49;86.97;99836.22;5370351;26;20000;-84
2024/04/13 03:50:21;;;;;;;13.15;6.75;;;;;;;12.28;87.50;99826.91;5373933;26;20004;-84
2024/04/13 03:52:47;;;;;;;13.18;7.18;;;;;;;12.29;87.16;99811.69;5377075;26;20114;-83
2024/04/13 03:55:12;;;;;;;9.65;7.03;;;;;;;12.53;87.00;99840.84;5377200;26;20032;-83
2024/04/13 03:57:37;;;;;;;14.05;7.28;;;;;;;12.55;87.19;99837.94;5344854;26;20004;-83
2024/04/13 04:00:06;;;;;;;14.55;7.55;;;;;;;12.37;87.41;99835.41;5376634;26;20459;-83
2024/04/13 04:02:32;;;;;;;8.38;6.30;;;;;;;12.43;87.35;99842.47;5369694;26;20008;-83
2024/04/13 04:04:58;;;;;;;14.60;7.07;;;;;;;12.57;87.06;99842.00;5368255;26;20003;-84
2024/04/13 04:07:23;;;;;;;10.90;7.38;;;;;;;12.33;86.81;99835.06;5372082;26;20009;-83
2024/04/13 04:09:48;;;;;;;12.32;7.07;;;;;;;12.32;87.73;99851.38;5376651;26;20041;-84
2024/04/13 04:12:14;;;;;;;9.30;6.88;;;;;;;12.24;87.53;99819.59;5373180;26;20451;-84
2024/04/13 04:14:39;;;;;;;11.52;7.07;;;;;;;12.46;86.97;99853.56;5370991;26;20004;-83
2024/04/13 04:17:05;;;;;;;11.88;6.93;;;;;;;12.29;87.21;99830.41;5345546;26;20114;-84
2024/04/13 04:19:32;;;;;;;15.48;7.57;;;;;;;12.26;87.69;99829.00;5374587;26;20018;-83
2024/04/13 04:21:57;;;;;;;13.23;7.70;;;;;;;12.50;86.10;99833.28;5360014;26;20010;-84
2024/04/13 04:24:25;;;;;;;14.48;6.50;;;;;;;12.46;86.66;99834.81;5376872;26;20008;-84
2024/04/13 04:26:50;;;;;;;10.07;7.45;;;;;;;12.32;87.48;99844.13;5379786;26;20012;-84
2024/04/13 04:29:16;;;;;;;13.45;8.13;;;;;;;12.14;87.50;99822.06;5373412;26;20431;-83
2024/04/13 04:31:41;;;;;;;11.55;6.88;;;;;;;12.11;86.79;99796.56;5372860;26;20506;-84
2024/04/13 04:34:08;;;;;;;15.15;7.90;;;;;;;11.68;87.60;99767.53;5373248;26;20077;-84
2024/04/13 04:36:33;;;;;;;11.00;6.75;;;;;;;12.14;88.08;99846.16;5379248;26;20425;-83
2024/04/13 04:38:59;;;;;;;11.88;7.03;;;;;;;12.31;86.96;99844.38;5371408;26;19997;-84
2024/04/13 04:41:26;;;;;;;12.45;7.70;;;;;;;12.17;88.31;99851.00;5369482;26;20004;-82
2024/04/13 04:43:52;;;;;;;10.40;6.80;;;;;;;12.12;88.19;99833.00;5340042;26;20004;-83
2024/04/13 04:46:17;;;;;;;10.23;7.15;;;;;;;12.23;87.97;99845.53;5368193;26;20010;-83
2024/04/13 04:48:49;;;;;;;9.63;6.03;;;;;;;12.24;87.09;99841.81;5376171;26;20045;-84
2024/04/13 04:51:15;;;;;;;10.48;7.25;;;;;;;12.38;86.85;99853.09;5375422;26;20503;-83
2024/04/13 04:53:40;;;;;;;12.00;6.30;;;;;;;12.28;87.08;99831.44;5378529;26;20008;-83
2024/04/13 04:56:06;;;;;;;17.88;7.65;;;;;;;12.22;87.45;99840.44;5371092;26;20013;-83
2024/04/13 04:58:32;;;;;;;11.55;6.88;;;;;;;12.32;87.86;99862.09;5375463;26;20029;-82
2024/04/13 05:00:58;;;;;;;10.57;7.30;;;;;;;12.29;88.11;99858.00;5370036;26;20039;-83
2024/04/13 05:03:24;;;;;;;9.38;7.75;;;;;;;12.00;88.82;99837.53;5358288;26;20048;-83
2024/04/13 05:05:50;;;;;;;20.55;10.25;;;;;;;11.91;90.97;99849.63;5351931;26;20620;-84
2024/04/13 05:08:16;;;;;;;11.48;7.13;;;;;;;12.34;88.68;99863.44;5371829;26;20007;-84
2024/04/13 05:10:42;;;;;;;15.65;7.40;;;;;;;12.03;88.87;99835.19;5377746;26;20066;-84
2024/04/13 05:13:08;;;;;;;13.38;6.75;;;;;;;12.34;88.31;99858.09;5377291;26;20004;-84
2024/04/13 05:15:34;;;;;;;14.38;8.30;;;;;;;11.97;90.31;99838.00;5377575;26;20020;-82
2024/04/13 05:18:00;;;;;;;10.38;7.20;;;;;;;12.27;88.92;99872.66;5376624;26;20004;-82
2024/04/13 05:20:25;;;;;;;14.10;7.88;;;;;;;12.45;87.89;99885.94;5349342;26;20009;-82
2024/04/13 05:22:50;;;;;;;12.50;6.95;;;;;;;12.36;88.05;99865.91;5369097;26;20106;-83
2024/04/13 05:25:17;;;;;;;13.88;6.85;;;;;;;12.42;87.05;99848.91;5348962;26;20343;-84
2024/04/13 05:27:42;;;;;;;9.70;7.80;;;;;;;12.38;88.73;99877.19;5373995;26;20070;-84
2024/04/13 05:30:10;;;;;;;16.42;9.27;;;;;;;12.40;90.14;99875.09;5346193;26;20612;-84
2024/04/13 05:32:35;;;;;;;13.80;8.50;;;;;;;12.57;88.00;99879.50;5378199;26;20012;-83
2024/04/13 05:35:01;;;;;;;19.83;8.95;;;;;;;12.65;87.28;99879.13;5363451;26;20035;-83
2024/04/13 05:37:26;;;;;;;16.52;9.52;;;;;;;12.55;87.69;99859.34;5381960;26;20085;-83
2024/04/13 05:39:51;;;;;;;13.25;7.43;;;;;;;12.53;90.15;99885.56;5377943;26;19992;-83
2024/04/13 05:42:17;;;;;;;10.35;6.72;;;;;;;12.59;88.83;99882.75;5373921;26;20005;-83
2024/04/13 05:44:42;;;;;;;14.25;8.90;;;;;;;12.71;89.20;99894.25;5344848;26;20012;-83
2024/04/13 05:47:08;;;;;;;12.23;7.88;;;;;;;12.71;88.96;99896.13;5380704;26;19992;-84
2024/04/13 05:49:34;;;;;;;16.58;8.40;;;;;;;12.71;88.64;99882.75;5367223;26;20625;-84
2024/04/13 05:51:59;;;;;;;11.85;6.80;;;;;;;12.82;88.14;99893.41;5376380;26;20015;-83
2024/04/13 05:54:25;;;;;;;11.43;7.38;;;;;;;12.79;89.29;99898.44;5381279;26;19996;-83
2024/04/13 05:56:53;;;;;;;13.23;7.20;;;;;;;12.93;88.05;99905.13;5372735;26;20004;-83
2024/04/13 05:59:19;;;;;;;9.77;7.18;;;;;;;12.73;87.33;99861.88;5379285;26;20012;-83
2024/04/13 06:01:44;;;;;;;11.85;7.97;;;;;;;12.91;88.32;99896.50;5376600;26;20000;-83
2024/04/13 06:04:09;;;;;;;12.10;7.28;;;;;;;13.07;87.31;99884.25;5376115;26;20004;-83
2024/04/13 06:06:35;;;;;;;10.00;6.80;;;;;;;13.15;86.73;99898.09;5368771;26;20000;-83
2024/04/13 06:09:00;;;;;;;16.90;8.70;;;;;;;12.98;88.86;99893.69;5312453;26;20023;-83
2024/04/13 06:11:25;;;;;;;15.80;7.40;;;;;;;13.10;86.27;99878.44;5365733;26;20001;-83
2024/04/13 06:13:51;;;;;;;12.38;7.00;;;;;;;12.97;86.30;99866.13;5312913;26;19996;-83
2024/04/13 06:16:16;;;;;;;13.02;7.28;;;;;;;12.88;88.55;99864.03;5349770;26;19996;-83
2024/04/13 06:18:41;;;;;;;12.02;6.72;;;;;;;13.13;86.36;99884.13;5346783;26;19992;-83
2024/04/13 06:21:07;;;;;;;21.70;9.52;;;;;;;13.17;87.99;99903.25;5378216;26;20004;-83
2024/04/13 06:23:32;;;;;;;15.00;6.80;;;;;;;13.29;84.94;99872.63;5339151;26;20000;-82
2024/04/13 06:25:58;;;;;;;11.00;7.38;;;;;;;13.25;85.44;99862.63;5370647;26;20000;-83
2024/04/13 06:28:23;;;;;;;15.20;6.55;;;;;;;13.58;83.92;99881.47;5369898;26;20004;-83
2024/04/13 06:30:50;;;;;;;20.15;6.68;;;;;;;13.39;85.18;99864.75;5345546;26;20012;-83
2024/04/13 06:33:16;;;;;;;17.67;8.63;;;;;;;13.27;87.73;99879.28;5342844;26;19997;-84
2024/04/13 06:35:42;;;;;;;18.52;7.03;;;;;;;13.35;86.87;99854.75;5377203;26;20071;-83
2024/04/13 06:38:07;;;;;;;15.88;9.07;;;;;;;13.19;89.25;99855.56;5342710;26;20019;-84
2024/04/13 06:40:35;;;;;;;14.50;7.03;;;;;;;13.51;86.95;99856.66;5378185;26;20115;-84
2024/04/13 06:43:01;;;;;;;13.35;7.20;;;;;;;13.62;85.81;99860.31;5369171;26;20429;-85
2024/04/13 06:45:27;;;;;;;15.90;9.48;;;;;;;13.56;89.80;99859.44;5350116;26;20000;-83
2024/04/13 06:47:52;;;;;;;16.27;8.05;;;;;;;13.44;88.51;99846.09;5376944;26;20379;-84
2024/04/13 06:50:17;;;;;;;9.95;6.97;;;;;;;13.67;86.32;99861.22;5347072;26;20004;-85
2024/04/13 06:52:43;;;;;;;19.30;8.80;;;;;;;13.54;90.97;99840.88;5379599;26;20000;-86
2024/04/13 06:55:08;;;;;;;15.30;7.93;;;;;;;13.79;87.20;99863.81;5382001;26;20000;-83
2024/04/13 06:57:33;;;;;;;12.98;7.63;;;;;;;13.63;87.01;99817.16;5370686;26;20015;-84
2024/04/13 06:59:59;;;;;;;16.33;7.57;;;;;;;13.94;87.45;99842.56;5378144;26;20087;-83
2024/04/13 07:02:25;;;;;;;13.40;8.60;;;;;;;14.10;87.84;99863.22;5364961;26;20011;-83
2024/04/13 07:04:50;;;;;;;12.40;8.20;;;;;;;14.13;88.38;99862.75;5365510;26;20023;-83
2024/04/13 07:07:16;;;;;;;15.75;7.72;;;;;;;14.13;87.72;99834.00;5375769;26;20004;-82
2024/04/13 07:09:41;;;;;;;14.70;8.25;;;;;;;14.28;88.09;99849.53;5374058;26;20004;-82
2024/04/13 07:12:08;;;;;;;20.00;8.38;;;;;;;14.25;91.08;99833.91;5381425;26;20440;-82
2024/04/13 07:14:34;;;;;;;15.35;7.40;;;;;;;14.35;86.91;99827.91;5369824;26;20009;-82
2024/04/13 07:17:01;;;;;;;14.00;8.32;;;;;;;14.55;86.19;99839.69;5373963;26;20001;-82
2024/04/13 07:19:26;;;;;;;17.27;8.00;;;;;;;14.51;88.68;99813.59;5366809;26;20004;-83
2024/04/13 07:21:52;;;;;;;12.70;8.00;;;;;;;14.70;86.71;99841.78;5349156;26;19996;-82
2024/04/13 07:24:17;;;;;;;13.57;6.93;;;;;;;14.79;85.44;99846.44;5344022;26;20011;-82
2024/04/13 07:26:43;;;;;;;12.75;7.47;;;;;;;14.72;86.60;99855.78;5371380;26;20010;-82
2024/04/13 07:29:09;;;;;;;28.90;7.90;;;;;;;14.79;85.54;99845.63;5364451;26;20000;-81
2024/04/13 07:31:34;;;;;;;14.95;7.38;;;;;;;14.79;85.34;99859.88;5368305;26;20351;-83
2024/04/13 07:33:59;;;;;;;12.07;7.22;;;;;;;14.91;85.04;99857.91;5373762;26;20356;-83
2024/04/13 07:36:25;;;;;;;6.95;5.72;;;;;;;14.84;84.11;99837.63;5379958;26;20448;-83
2024/04/13 07:38:50;;;;;;;15.68;7.60;;;;;;;14.90;84.80;99853.56;5337117;26;19997;-81
2024/04/13 07:41:15;;;;;;;13.65;7.65;;;;;;;14.88;85.24;99841.44;5379047;26;20435;-82
2024/04/13 07:43:41;;;;;;;16.90;7.47;;;;;;;14.92;84.09;99837.19;5333212;26;19993;-83
2024/04/13 07:46:06;;;;;;;11.55;7.53;;;;;;;15.15;86.27;99853.03;5371709;26;20014;-82
2024/04/13 07:48:32;;;;;;;16.33;8.15;;;;;;;15.07;85.84;99839.25;5374288;26;20008;-82
2024/04/13 07:50:57;;;;;;;14.75;7.13;;;;;;;15.18;84.55;99840.97;5347588;26;20008;-82
2024/04/13 07:53:22;;;;;;;13.90;7.10;;;;;;;15.29;84.87;99848.06;5313873;26;19997;-82
2024/04/13 07:55:50;;;;;;;13.80;6.53;;;;;;;15.28;84.13;99849.13;5349612;26;20020;-83
2024/04/13 07:58:15;;;;;;;13.27;7.47;;;;;;;15.35;85.41;99834.41;5344255;26;20032;-82
2024/04/13 08:00:40;;;;;;;15.10;7.32;;;;;;;15.32;83.22;99826.84;5343374;26;20324;-82
2024/04/13 08:03:06;;;;;;;10.82;6.93;;;;;;;15.43;82.93;99833.13;5377313;26;20000;-82
2024/04/13 08:05:32;;;;;;;15.18;6.28;;;;;;;15.45;82.98;99833.72;5371808;26;20013;-82
2024/04/13 08:07:57;;;;;;;10.90;5.97;;;;;;;15.51;82.89;99841.56;5379018;26;19992;-81
2024/04/13 08:10:23;;;;;;;11.82;6.78;;;;;;;15.54;82.54;99842.94;5370001;26;20070;-82
2024/04/13 08:12:48;;;;;;;11.20;6.40;;;;;;;15.69;82.68;99840.38;5366122;26;20046;-82
2024/04/13 08:15:13;;;;;;;13.90;7.07;;;;;;;15.75;82.12;99831.25;5342058;26;20023;-83
2024/04/13 08:17:39;;;;;;;12.80;6.45;;;;;;;15.91;83.93;99830.31;5378341;26;19996;-83
2024/04/13 08:20:08;;;;;;;12.45;5.97;;;;;;;15.84;81.91;99834.28;5380781;26;20018;-82
2024/04/13 08:22:34;;;;;;;12.35;5.95;;;;;;;15.62;82.45;99802.09;5375669;26;20000;-83
2024/04/13 08:24:59;;;;;;;12.00;6.15;;;;;;;15.92;82.23;99839.22;5344573;26;20000;-83
2024/04/13 08:27:25;;;;;;;10.65;5.95;;;;;;;15.85;81.66;99817.06;5380413;26;19992;-83
2024/04/13 08:29:52;;;;;;;12.05;6.32;;;;;;;15.99;81.19;99816.34;5374340;26;20019;-83
2024/04/13 08:32:18;;;;;;;13.32;5.50;;;;;;;15.91;81.67;99822.22;5369916;26;20001;-83
2024/04/13 08:34:44;;;;;;;10.93;5.50;;;;;;;16.02;81.43;99815.03;5377217;26;20000;-83
2024/04/13 08:37:10;;;;;;;11.95;6.55;;;;;;;16.15;82.24;99820.78;5344135;26;20015;-83
2024/04/13 08:39:35;;;;;;;12.32;6.70;;;;;;;16.01;80.56;99806.13;5373251;26;20008;-83
2024/04/13 08:42:10;;;;;;;10.38;5.80;;;;;;;16.18;80.89;99828.34;5379192;26;20015;-83
2024/04/13 08:44:36;;;;;;;11.02;5.35;;;;;;;15.89;81.42;99804.72;5374393;26;20405;-83
2024/04/13 08:47:02;;;;;;;13.30;5.85;;;;;;;16.20;81.38;99828.06;5378879;26;20395;-83
2024/04/13 08:49:29;;;;;;;11.73;6.55;;;;;;;16.16;81.74;99821.59;5378710;26;20012;-83
2024/04/13 08:51:55;;;;;;;9.40;5.10;;;;;;;16.29;82.02;99830.00;5382309;26;20028;-83
2024/04/13 08:54:20;;;;;;;8.27;4.75;;;;;;;16.37;80.28;99816.03;5371932;26;20134;-82
2024/04/13 08:56:47;;;;;;;8.90;5.63;;;;;;;16.47;79.99;99813.38;5351527;26;20007;-83
2024/04/13 08:59:13;;;;;;;10.70;5.70;;;;;;;16.66;79.28;99827.25;5368538;26;20005;-82
2024/04/13 09:01:43;;;;;;;10.85;5.95;;;;;;;16.60;80.40;99817.50;5377328;26;19996;-82
2024/04/13 09:04:10;;;;;;;7.85;5.45;;;;;;;16.74;79.50;99820.53;5367763;26;20019;-82
2024/04/13 09:06:35;;;;;;;9.18;5.97;;;;;;;16.83;80.31;99818.94;5349601;26;20014;-83
2024/04/13 09:09:08;;;;;;;12.20;5.50;;;;;;;16.83;80.65;99803.59;5358563;26;20005;-83
2024/04/13 09:11:37;;;;;;;10.25;5.80;;;;;;;16.99;78.60;99815.22;5375623;26;19997;-82
2024/04/13 09:14:03;;;;;;;10.70;5.75;;;;;;;17.07;79.78;99814.69;5368902;26;20004;-83
2024/04/13 09:16:30;;;;;;;13.38;5.25;;;;;;;16.90;78.25;99824.91;5369613;26;20070;-83
2024/04/13 09:18:56;;;;;;;10.40;4.70;;;;;;;16.78;78.51;99818.91;5376883;26;20009;-83
2024/04/13 09:21:21;;;;;;;8.27;4.65;;;;;;;16.66;77.93;99818.34;5349234;26;20061;-83
2024/04/13 09:23:49;;;;;;;7.47;4.47;;;;;;;16.91;76.68;99813.03;5370780;26;20456;-81
2024/04/13 09:26:15;;;;;;;22.73;6.18;;;;;;;16.99;77.44;99823.31;5371107;26;20004;-82
2024/04/13 09:28:41;;;;;;;9.52;4.85;;;;;;;16.92;76.76;99801.19;5372053;26;20092;-82
2024/04/13 09:31:11;;;;;;;7.97;5.10;;;;;;;17.08;77.65;99808.22;5373425;26;20020;-82
2024/04/13 09:33:40;;;;;;;8.02;4.82;;;;;;;17.17;76.98;99796.63;5376101;26;19996;-83
2024/04/13 09:36:07;;;;;;;12.75;4.95;;;;;;;17.33;76.43;99788.53;5373724;26;19997;-83
2024/04/13 09:38:33;;;;;;;9.10;4.95;;;;;;;17.39;76.36;99807.16;5342710;26;20365;-83
2024/04/13 09:40:59;;;;;;;10.63;4.80;;;;;;;17.32;75.61;99781.53;5377401;26;19996;-82
2024/04/13 09:43:25;;;;;;;6.07;4.88;;;;;;;17.44;74.90;99791.00;5347275;26;20000;-82
2024/04/13 09:46:01;;;;;;;9.75;4.93;;;;;;;17.57;75.05;99801.28;5374013;26;20079;-82
2024/04/13 09:48:27;;;;;;;8.25;4.63;;;;;;;17.43;74.86;99797.44;5375077;26;20456;-82
2024/04/13 09:50:52;;;;;;;8.65;4.85;;;;;;;17.44;75.36;99782.88;5375038;26;20004;-82
2024/04/13 09:53:18;;;;;;;11.48;5.90;;;;;;;17.45;74.27;99789.88;5369408;26;19996;-82
2024/04/13 09:55:44;;;;;;;6.57;4.22;;;;;;;17.43;74.44;99778.56;5369283;26;20019;-84
2024/04/13 09:58:12;;;;;;;7.65;4.75;;;;;;;17.64;74.26;99796.41;5371007;26;20015;-83
2024/04/13 10:00:39;;;;;;;9.27;5.05;;;;;;;17.58;74.47;99783.97;5375900;26;20039;-84
2024/04/13 10:03:05;;;;;;;7.60;4.68;;;;;;;17.62;74.78;99785.09;5377227;26;20523;-83
2024/04/13 10:05:33;;;;;;;7.47;5.00;;;;;;;17.69;74.22;99763.19;5381568;26;20000;-83
2024/04/13 10:08:00;;;;;;;10.13;5.15;;;;;;;17.71;74.13;99785.34;5367316;26;20008;-83
2024/04/13 10:10:28;;;;;;;15.38;5.72;;;;;;;17.90;74.73;99784.50;5367239;26;20000;-83
2024/04/13 10:12:56;;;;;;;8.07;4.88;;;;;;;17.64;74.20;99763.19;5371616;26;20424;-84
2024/04/13 10:15:22;;;;;;;8.50;4.95;;;;;;;17.83;74.63;99772.34;5344711;26;20000;-84
2024/04/13 10:17:49;;;;;;;10.15;4.90;;;;;;;18.03;73.30;99782.31;5339190;26;20454;-84
2024/04/13 10:20:15;;;;;;;7.65;4.47;;;;;;;18.10;73.75;99772.03;5404158;26;20000;-83
2024/04/13 10:22:50;;;;;;;8.15;4.82;;;;;;;18.02;73.69;99764.50;5374110;26;19993;-82
2024/04/13 10:25:16;;;;;;;11.18;6.05;;;;;;;18.19;73.26;99775.78;5372704;26;20097;-83
2024/04/13 10:27:41;;;;;;;12.43;4.97;;;;;;;18.07;73.33;99764.44;5375749;26;20039;-83
2024/04/13 10:30:07;;;;;;;12.07;5.30;;;;;;;17.97;73.30;99757.19;5352667;26;20012;-82
2024/04/13 10:32:32;;;;;;;8.70;4.68;;;;;;;18.10;72.73;99736.91;5384825;26;19999;-82
2024/04/13 10:35:11;;;;;;;10.68;5.38;;;;;;;18.29;72.49;99754.09;5343185;26;20004;-81
2024/04/13 10:37:36;;;;;;;10.55;4.70;;;;;;;18.32;72.56;99756.28;5376628;26;20484;-83
2024/04/13 10:40:05;;;;;;;8.80;4.40;;;;;;;18.33;72.58;99756.00;5379465;26;20020;-83
2024/04/13 10:42:34;;;;;;;13.50;5.15;;;;;;;18.39;71.62;99759.50;5379991;26;19996;-84
2024/04/13 10:44:59;;;;;;;12.30;4.63;;;;;;;18.50;73.38;99728.66;5378992;26;20008;-82
2024/04/13 10:47:26;;;;;;;5.75;3.90;;;;;;;18.62;70.97;99727.22;5354208;26;20337;-83
2024/04/13 10:49:54;;;;;;;12.50;4.20;;;;;;;18.53;71.54;99736.19;5343921;26;20004;-84
2024/04/13 10:52:20;;;;;;;7.20;4.95;;;;;;;18.54;71.03;99721.59;5372684;26;20359;-84
2024/04/13 10:54:58;;;;;;;9.90;4.43;;;;;;;18.57;71.51;99734.53;5381533;26;20011;-84
2024/04/13 10:57:24;;;;;;;6.93;4.68;;;;;;;18.61;71.25;99720.19;5372024;26;20004;-83
2024/04/13 10:59:50;;;;;;;10.77;6.00;;;;;;;18.67;71.35;99721.75;5384134;26;20008;-84
2024/04/13 11:02:16;;;;;;;10.38;5.03;;;;;;;18.93;71.63;99718.91;5351400;26;20000;-83
2024/04/13 11:04:45;;;;;;;8.63;4.07;;;;;;;19.14;70.02;99710.34;5369471;26;20000;-84
2024/04/13 11:07:12;;;;;;;8.32;4.60;;;;;;;19.12;70.59;99711.72;5375383;26;20001;-84
2024/04/13 11:09:41;;;;;;;11.00;4.30;;;;;;;19.04;70.45;99713.16;5376381;26;20015;-84
2024/04/13 11:12:13;;;;;;;8.50;4.35;;;;;;;19.13;69.69;99695.19;5373516;26;20000;-84
2024/04/13 11:14:39;;;;;;;10.13;4.38;;;;;;;19.02;69.00;99690.16;5380710;26;20008;-83
2024/04/13 11:17:05;;;;;;;8.15;4.43;;;;;;;18.95;69.07;99695.91;5383884;26;20451;-83
2024/04/13 11:19:31;;;;;;;6.57;4.60;;;;;;;18.97;69.47;99699.13;5382972;26;20080;-84
2024/04/13 11:21:59;;;;;;;6.70;3.67;;;;;;;18.95;69.86;99682.38;5385013;26;20001;-83
2024/04/13 11:24:26;;;;;;;13.40;4.57;;;;;;;18.91;69.02;99689.44;5373840;26;20388;-85